createdAt,value
2022-11-07T00:00:23.802Z,0
2022-11-07T00:02:48.897Z,0
2022-11-07T00:05:14.984Z,0
2022-11-07T00:07:41.093Z,0
2022-11-07T00:10:07.180Z,0
2022-11-07T00:12:33.272Z,0
2022-11-07T00:14:59.379Z,0
2022-11-07T00:17:25.476Z,0
2022-11-07T00:19:51.575Z,0
2022-11-07T00:22:17.690Z,0
2022-11-07T00:24:43.757Z,0
2022-11-07T00:27:09.858Z,0
2022-11-07T00:29:35.940Z,0
2022-11-07T00:32:02.111Z,0
2022-11-07T00:34:27.158Z,0
2022-11-07T00:36:53.239Z,0
2022-11-07T00:39:19.332Z,0
2022-11-07T00:41:45.439Z,0
2022-11-07T00:44:11.532Z,0
2022-11-07T00:46:37.627Z,0
2022-11-07T00:49:03.721Z,0
2022-11-07T00:51:29.819Z,0
2022-11-07T00:53:55.924Z,0
2022-11-07T00:56:22.005Z,0
2022-11-07T00:58:48.129Z,0
2022-11-07T01:01:14.212Z,0
2022-11-07T01:03:40.314Z,0
2022-11-07T01:06:05.386Z,0
2022-11-07T01:08:31.507Z,0
2022-11-07T01:10:57.603Z,0
2022-11-07T01:13:23.682Z,0
2022-11-07T01:15:49.804Z,0
2022-11-07T01:18:15.945Z,0
2022-11-07T01:20:41.972Z,0
2022-11-07T01:23:08.063Z,0
2022-11-07T01:25:34.161Z,0
2022-11-07T01:28:00.251Z,0
2022-11-07T01:30:26.363Z,0
2022-11-07T01:32:52.445Z,0
2022-11-07T01:35:18.548Z,0
2022-11-07T01:37:43.687Z,0
2022-11-07T01:40:09.770Z,0
2022-11-07T01:42:35.855Z,0
2022-11-07T01:45:01.948Z,0
2022-11-07T01:47:28.035Z,0
2022-11-07T01:49:54.128Z,0
2022-11-07T01:52:20.238Z,0
2022-11-07T01:54:46.328Z,0
2022-11-07T01:57:12.430Z,0
2022-11-07T01:59:38.513Z,0
2022-11-07T02:02:04.632Z,0
2022-11-07T02:04:30.705Z,0
2022-11-07T02:06:56.812Z,0
2022-11-07T02:09:21.908Z,0
2022-11-07T02:11:48.014Z,0
2022-11-07T02:14:14.093Z,0
2022-11-07T02:16:40.201Z,0
2022-11-07T02:19:06.290Z,0
2022-11-07T02:21:32.433Z,0
2022-11-07T02:23:58.500Z,0
2022-11-07T02:26:24.594Z,0
2022-11-07T02:28:50.670Z,0
2022-11-07T02:31:16.780Z,0
2022-11-07T02:33:42.878Z,0
2022-11-07T02:36:08.971Z,0
2022-11-07T02:38:35.074Z,0
2022-11-07T02:41:00.187Z,0
2022-11-07T02:43:26.268Z,0
2022-11-07T02:45:52.418Z,0
2022-11-07T02:48:18.461Z,0
2022-11-07T02:50:44.542Z,0
2022-11-07T02:53:10.661Z,0
2022-11-07T02:55:35.766Z,0
2022-11-07T02:58:01.860Z,0
2022-11-07T03:00:27.955Z,0
2022-11-07T03:02:54.081Z,0
2022-11-07T03:05:20.144Z,0
2022-11-07T03:07:46.247Z,0
2022-11-07T03:10:12.327Z,0
2022-11-07T03:12:38.431Z,0
2022-11-07T03:15:04.527Z,0
2022-11-07T03:17:30.687Z,0
2022-11-07T03:19:56.717Z,0
2022-11-07T03:22:22.849Z,0
2022-11-07T03:24:48.904Z,0
2022-11-07T03:27:14.030Z,0
2022-11-07T03:29:40.129Z,0
2022-11-07T03:32:06.219Z,0
2022-11-07T03:34:32.297Z,0
2022-11-07T03:36:58.422Z,0
2022-11-07T03:39:24.497Z,0
2022-11-07T03:41:50.585Z,0
2022-11-07T03:44:16.705Z,0
2022-11-07T03:46:42.779Z,0
2022-11-07T03:49:08.879Z,0
2022-11-07T03:51:34.993Z,0
2022-11-07T03:54:01.089Z,0
2022-11-07T03:56:27.199Z,0
2022-11-07T03:58:52.274Z,0
2022-11-07T04:01:18.384Z,0
2022-11-07T04:03:44.474Z,0
2022-11-07T04:06:10.573Z,0
2022-11-07T04:08:36.660Z,0
2022-11-07T04:11:02.756Z,0
2022-11-07T04:13:28.906Z,0
2022-11-07T04:15:54.994Z,0
2022-11-07T04:18:21.072Z,0
2022-11-07T04:20:47.154Z,0
2022-11-07T04:23:13.236Z,0
2022-11-07T04:25:39.339Z,0
2022-11-07T04:28:05.424Z,0
2022-11-07T04:30:30.537Z,0
2022-11-07T04:32:56.638Z,0
2022-11-07T04:35:22.744Z,0
2022-11-07T04:37:48.832Z,0
2022-11-07T04:40:14.921Z,0
2022-11-07T04:42:41.019Z,0
2022-11-07T04:45:07.144Z,0
2022-11-07T04:49:59.336Z,0
2022-11-07T04:52:25.397Z,0
2022-11-07T04:54:51.490Z,0
2022-11-07T04:57:17.603Z,0
2022-11-07T04:59:43.683Z,0
2022-11-07T05:02:08.788Z,0
2022-11-07T05:04:34.888Z,0
2022-11-07T05:07:00.993Z,0
2022-11-07T05:09:27.073Z,0
2022-11-07T05:11:53.199Z,0
2022-11-07T05:14:19.280Z,0
2022-11-07T05:16:45.375Z,0
2022-11-07T05:19:11.500Z,0
2022-11-07T05:21:37.567Z,0
2022-11-07T05:24:03.733Z,0
2022-11-07T05:26:29.761Z,0
2022-11-07T05:28:55.834Z,0
2022-11-07T05:31:22.044Z,0
2022-11-07T05:33:47.052Z,0
2022-11-07T05:36:13.178Z,0
2022-11-07T05:38:39.237Z,0
2022-11-07T05:41:05.382Z,0
2022-11-07T05:43:31.431Z,0
2022-11-07T05:45:57.539Z,0
2022-11-07T05:48:23.620Z,0
2022-11-07T05:50:49.775Z,0
2022-11-07T05:53:15.826Z,0
2022-11-07T05:55:41.896Z,4
2022-11-07T05:58:08.004Z,8
2022-11-07T06:00:34.143Z,4
2022-11-07T06:03:00.288Z,8
2022-11-07T06:05:25.326Z,12
2022-11-07T06:07:51.409Z,16
2022-11-07T06:10:17.659Z,24
2022-11-07T06:12:43.585Z,32
2022-11-07T06:15:09.692Z,64
2022-11-07T06:17:35.800Z,76
2022-11-07T06:20:01.896Z,112
2022-11-07T06:22:27.983Z,144
2022-11-07T06:24:54.071Z,188
2022-11-07T06:27:20.178Z,200
2022-11-07T06:29:46.278Z,232
2022-11-07T06:32:12.397Z,261
2022-11-07T06:34:38.450Z,269
2022-11-07T06:37:03.573Z,285
2022-11-07T06:39:29.709Z,301
2022-11-07T06:41:55.771Z,321
2022-11-07T06:44:21.865Z,381
2022-11-07T06:46:47.948Z,457
2022-11-07T06:49:14.079Z,530
2022-11-07T06:51:40.163Z,610
2022-11-07T06:54:06.241Z,622
2022-11-07T06:56:32.371Z,650
2022-11-07T06:58:58.428Z,650
2022-11-07T07:01:24.645Z,698
2022-11-07T07:03:50.773Z,771
2022-11-07T07:06:16.836Z,887
2022-11-07T07:08:41.876Z,1116
2022-11-07T07:11:07.951Z,1413
2022-11-07T07:13:34.058Z,1734
2022-11-07T07:16:00.187Z,1951
2022-11-07T07:18:26.278Z,2224
2022-11-07T07:20:52.367Z,2160
2022-11-07T07:23:18.398Z,1963
2022-11-07T07:25:44.547Z,1951
2022-11-07T07:28:10.605Z,1911
2022-11-07T07:30:36.694Z,1774
2022-11-07T07:33:02.852Z,1722
2022-11-07T07:35:28.942Z,1738
2022-11-07T07:37:55.095Z,1730
2022-11-07T07:40:20.095Z,1714
2022-11-07T07:42:46.178Z,1859
2022-11-07T07:45:12.270Z,2052
2022-11-07T07:47:38.371Z,2248
2022-11-07T07:50:04.532Z,2365
2022-11-07T07:52:30.570Z,2473
2022-11-07T07:54:56.677Z,2537
2022-11-07T07:57:22.746Z,2642
2022-11-07T07:59:48.879Z,2726
2022-11-07T08:02:14.955Z,2626
2022-11-07T08:04:41.073Z,2634
2022-11-07T08:07:07.292Z,2859
2022-11-07T08:09:33.372Z,3104
2022-11-07T08:11:58.458Z,3176
2022-11-07T08:14:24.537Z,3124
2022-11-07T08:16:50.663Z,3011
2022-11-07T08:19:16.690Z,3055
2022-11-07T08:21:42.738Z,3365
2022-11-07T08:24:08.868Z,3481
2022-11-07T08:26:34.958Z,3734
2022-11-07T08:29:01.026Z,3855
2022-11-07T08:31:27.139Z,3594
2022-11-07T08:33:53.287Z,3437
2022-11-07T08:36:19.282Z,3252
2022-11-07T08:38:45.457Z,3276
2022-11-07T08:41:11.494Z,3337
2022-11-07T08:43:36.672Z,3244
2022-11-07T08:46:02.787Z,3144
2022-11-07T08:48:28.842Z,2935
2022-11-07T08:50:54.937Z,2923
2022-11-07T08:53:21.000Z,3160
2022-11-07T08:55:47.085Z,3409
2022-11-07T08:58:13.177Z,3642
2022-11-07T09:00:39.408Z,3939
2022-11-07T09:03:05.374Z,4409
2022-11-07T09:05:31.568Z,4690
2022-11-07T09:07:57.592Z,4662
2022-11-07T09:10:23.656Z,4614
2022-11-07T09:12:49.765Z,4465
2022-11-07T09:15:14.859Z,4232
2022-11-07T09:17:40.992Z,3834
2022-11-07T09:20:07.065Z,3594
2022-11-07T09:22:33.163Z,3521
2022-11-07T09:24:59.241Z,3642
2022-11-07T09:27:25.345Z,3911
2022-11-07T09:29:51.432Z,3895
2022-11-07T09:32:17.521Z,3766
2022-11-07T09:34:43.653Z,4015
2022-11-07T09:37:09.860Z,4328
2022-11-07T09:39:35.808Z,4457
2022-11-07T09:42:01.995Z,4626
2022-11-07T09:44:28.014Z,4477
2022-11-07T09:46:53.131Z,4357
2022-11-07T09:49:19.207Z,4485
2022-11-07T09:51:45.298Z,4662
2022-11-07T09:54:11.445Z,4879
2022-11-07T09:56:37.488Z,4778
2022-11-07T09:59:03.596Z,4381
2022-11-07T10:01:29.803Z,4818
2022-11-07T10:03:55.778Z,5232
2022-11-07T10:06:21.987Z,4991
2022-11-07T10:08:47.987Z,4614
2022-11-07T10:11:14.163Z,4180
2022-11-07T10:13:40.174Z,4461
2022-11-07T10:16:06.257Z,4730
2022-11-07T10:18:31.373Z,4907
2022-11-07T10:20:57.488Z,5124
2022-11-07T10:23:23.659Z,5409
2022-11-07T10:25:49.666Z,4987
2022-11-07T10:28:15.833Z,4541
2022-11-07T10:30:41.846Z,4706
2022-11-07T10:33:07.928Z,4927
2022-11-07T10:35:34.050Z,4923
2022-11-07T10:38:00.128Z,5312
2022-11-07T10:40:26.242Z,5714
2022-11-07T10:42:52.369Z,5786
2022-11-07T10:45:18.432Z,5754
2022-11-07T10:47:44.501Z,5842
2022-11-07T10:50:09.652Z,5818
2022-11-07T10:52:35.718Z,6067
2022-11-07T10:55:01.853Z,6324
2022-11-07T10:57:27.958Z,6340
2022-11-07T10:59:54.075Z,6240
2022-11-07T11:02:20.117Z,5895
2022-11-07T11:04:45.214Z,5027
2022-11-07T11:07:11.304Z,4887
2022-11-07T11:09:37.445Z,5011
2022-11-07T11:12:03.491Z,4846
2022-11-07T11:14:29.660Z,4272
2022-11-07T11:16:55.703Z,4369
2022-11-07T11:19:21.873Z,4750
2022-11-07T11:21:47.924Z,5107
2022-11-07T11:24:13.973Z,5565
2022-11-07T11:26:40.069Z,5658
2022-11-07T11:29:06.160Z,5477
2022-11-07T11:31:32.307Z,6139
2022-11-07T11:33:58.355Z,7067
2022-11-07T11:36:23.466Z,6766
2022-11-07T11:38:49.578Z,6814
2022-11-07T11:41:15.774Z,6192
2022-11-07T11:43:41.727Z,6541
2022-11-07T11:46:07.844Z,6658
2022-11-07T11:48:33.947Z,7027
2022-11-07T11:51:00.019Z,6814
2022-11-07T11:53:26.172Z,6280
2022-11-07T11:55:52.286Z,5625
2022-11-07T11:58:18.320Z,4610
2022-11-07T12:00:44.406Z,4264
2022-11-07T12:03:10.550Z,4489
2022-11-07T12:05:36.635Z,4822
2022-11-07T12:08:01.750Z,4063
2022-11-07T12:10:27.846Z,3710
2022-11-07T12:12:53.920Z,3513
2022-11-07T12:15:20.014Z,3838
2022-11-07T12:17:46.090Z,3634
2022-11-07T12:20:12.204Z,4979
2022-11-07T12:22:38.285Z,4686
2022-11-07T12:25:04.394Z,3790
2022-11-07T12:27:30.477Z,3718
2022-11-07T12:29:56.583Z,3834
2022-11-07T12:32:22.666Z,3863
2022-11-07T12:34:48.762Z,3003
2022-11-07T12:37:14.869Z,3216
2022-11-07T12:39:39.991Z,3951
2022-11-07T12:42:06.072Z,4830
2022-11-07T12:44:32.151Z,5694
2022-11-07T12:46:58.268Z,5493
2022-11-07T12:49:24.359Z,5332
2022-11-07T12:51:50.436Z,5188
2022-11-07T12:54:16.545Z,5449
2022-11-07T12:56:42.671Z,5931
2022-11-07T12:59:08.727Z,5738
2022-11-07T13:01:34.825Z,5597
2022-11-07T13:04:00.928Z,5742
2022-11-07T13:06:27.015Z,5292
2022-11-07T13:08:53.132Z,5083
2022-11-07T13:11:18.207Z,4650
2022-11-07T13:13:44.365Z,4124
2022-11-07T13:16:10.432Z,4288
2022-11-07T13:18:36.584Z,3581
2022-11-07T13:21:02.595Z,3055
2022-11-07T13:23:28.691Z,3047
2022-11-07T13:25:54.789Z,2843
2022-11-07T13:28:20.887Z,3072
2022-11-07T13:30:46.964Z,3112
2022-11-07T13:33:13.088Z,2847
2022-11-07T13:35:39.234Z,3686
2022-11-07T13:38:05.273Z,3156
2022-11-07T13:40:31.436Z,3007
2022-11-07T13:42:56.482Z,3080
2022-11-07T13:45:22.578Z,3337
2022-11-07T13:47:48.652Z,3240
2022-11-07T13:50:14.756Z,3353
2022-11-07T13:52:40.857Z,3144
2022-11-07T13:55:06.951Z,3084
2022-11-07T13:57:33.043Z,3108
2022-11-07T13:59:59.124Z,3019
2022-11-07T14:02:25.225Z,2754
2022-11-07T14:04:51.335Z,2562
2022-11-07T14:07:17.445Z,2618
2022-11-07T14:09:43.528Z,2642
2022-11-07T14:12:09.623Z,2927
2022-11-07T14:14:34.725Z,3421
2022-11-07T14:17:00.816Z,4031
2022-11-07T14:19:26.925Z,3971
2022-11-07T14:21:53.005Z,4148
2022-11-07T14:24:19.109Z,3790
2022-11-07T14:26:45.193Z,3104
2022-11-07T14:29:11.320Z,3172
2022-11-07T14:31:37.521Z,3100
2022-11-07T14:34:03.536Z,2899
2022-11-07T14:36:29.595Z,2501
2022-11-07T14:38:55.681Z,2345
2022-11-07T14:41:21.762Z,2429
2022-11-07T14:43:47.861Z,2453
2022-11-07T14:46:12.998Z,2321
2022-11-07T14:48:39.134Z,2252
2022-11-07T14:51:05.161Z,2321
2022-11-07T14:53:31.322Z,2212
2022-11-07T14:55:57.350Z,2132
2022-11-07T14:58:23.479Z,2031
2022-11-07T15:00:49.552Z,1823
2022-11-07T15:03:15.661Z,1429
2022-11-07T15:05:41.787Z,1160
2022-11-07T15:08:07.831Z,939
2022-11-07T15:10:33.944Z,907
2022-11-07T15:13:00.095Z,726
2022-11-07T15:15:26.113Z,598
2022-11-07T15:17:51.249Z,574
2022-11-07T15:20:17.330Z,594
2022-11-07T15:22:43.424Z,594
2022-11-07T15:25:09.506Z,578
2022-11-07T15:27:35.677Z,558
2022-11-07T15:30:01.721Z,570
2022-11-07T15:32:27.795Z,538
2022-11-07T15:34:53.908Z,453
2022-11-07T15:37:19.997Z,389
2022-11-07T15:39:46.210Z,313
2022-11-07T15:42:12.364Z,265
2022-11-07T15:44:38.303Z,232
2022-11-07T15:47:04.551Z,192
2022-11-07T15:49:29.505Z,156
2022-11-07T15:51:55.643Z,128
2022-11-07T15:54:21.768Z,112
2022-11-07T15:56:47.767Z,88
2022-11-07T15:59:13.888Z,72
2022-11-07T16:01:39.945Z,52
2022-11-07T16:04:06.057Z,36
2022-11-07T16:06:32.251Z,28
2022-11-07T16:08:58.250Z,20
2022-11-07T16:11:24.336Z,12
2022-11-07T16:13:50.439Z,8
2022-11-07T16:16:16.593Z,4
2022-11-07T16:18:42.624Z,4
2022-11-07T16:21:07.741Z,4
2022-11-07T16:23:33.844Z,0
2022-11-07T16:25:59.927Z,0
2022-11-07T16:28:26.053Z,0
2022-11-07T16:30:52.155Z,0
2022-11-07T16:33:18.211Z,0
2022-11-07T16:35:44.309Z,0
2022-11-07T16:38:10.414Z,0
2022-11-07T16:40:36.491Z,0
2022-11-07T16:43:02.649Z,0
2022-11-07T16:45:28.686Z,0
2022-11-07T16:47:54.886Z,0
2022-11-07T16:50:20.878Z,0
2022-11-07T16:52:46.001Z,0
2022-11-07T16:55:12.173Z,0
2022-11-07T16:57:38.184Z,0
2022-11-07T17:00:04.278Z,0
2022-11-07T17:02:30.362Z,0
2022-11-07T17:04:56.492Z,0
2022-11-07T17:07:22.554Z,0
2022-11-07T17:09:48.660Z,0
2022-11-07T17:12:14.743Z,0
2022-11-07T17:14:40.841Z,0
2022-11-07T17:17:06.940Z,0
2022-11-07T17:19:33.069Z,0
2022-11-07T17:21:59.129Z,0
2022-11-07T17:24:24.322Z,0
2022-11-07T17:26:50.334Z,0
2022-11-07T17:29:16.421Z,0
2022-11-07T17:31:42.524Z,0
2022-11-07T17:34:08.613Z,0
2022-11-07T17:36:34.721Z,0
2022-11-07T17:39:00.819Z,0
2022-11-07T17:41:26.966Z,0
2022-11-07T17:43:53.037Z,0
2022-11-07T17:46:19.095Z,0
2022-11-07T17:48:45.190Z,0
2022-11-07T17:51:11.297Z,0
2022-11-07T17:53:37.410Z,0
2022-11-07T17:56:02.495Z,0
2022-11-07T17:58:28.594Z,0
2022-11-07T18:00:54.748Z,0
2022-11-07T18:03:20.815Z,0
2022-11-07T18:05:46.946Z,0
2022-11-07T18:08:13.063Z,0
2022-11-07T18:10:39.074Z,0
2022-11-07T18:13:05.161Z,0
2022-11-07T18:15:31.272Z,0
2022-11-07T18:17:57.429Z,0
2022-11-07T18:20:23.528Z,0
2022-11-07T18:22:49.614Z,0
2022-11-07T18:25:15.664Z,0
2022-11-07T18:27:40.767Z,0
2022-11-07T18:30:06.853Z,0
2022-11-07T18:32:32.937Z,0
2022-11-07T18:34:59.121Z,0
2022-11-07T18:37:25.123Z,0
2022-11-07T18:39:51.234Z,0
2022-11-07T18:42:17.347Z,0
2022-11-07T18:44:43.428Z,0
2022-11-07T18:47:09.532Z,0
2022-11-07T18:49:35.607Z,0
2022-11-07T18:52:01.714Z,0
2022-11-07T18:54:27.811Z,0
2022-11-07T18:56:53.917Z,0
2022-11-07T18:59:19.045Z,0
2022-11-07T19:01:45.102Z,0
2022-11-07T19:04:11.354Z,0
2022-11-07T19:06:37.323Z,0
2022-11-07T19:09:03.447Z,0
2022-11-07T19:11:29.615Z,0
2022-11-07T19:13:54.601Z,0
2022-11-07T19:16:20.715Z,0
2022-11-07T19:18:46.809Z,0
2022-11-07T19:21:12.887Z,0
2022-11-07T19:23:38.991Z,0
2022-11-07T19:26:05.091Z,0
2022-11-07T19:28:31.178Z,0
2022-11-07T19:30:57.274Z,0
2022-11-07T19:33:23.397Z,0
2022-11-07T19:35:49.495Z,0
2022-11-07T19:38:15.567Z,0
2022-11-07T19:40:41.667Z,0
2022-11-07T19:43:07.753Z,0
2022-11-07T19:45:32.998Z,0
2022-11-07T19:47:58.960Z,0
2022-11-07T19:50:25.056Z,0
2022-11-07T19:52:51.146Z,0
2022-11-07T19:55:17.253Z,0
2022-11-07T19:57:43.339Z,0
2022-11-07T20:00:09.481Z,0
2022-11-07T20:02:35.533Z,0
2022-11-07T20:05:01.661Z,0
2022-11-07T20:07:27.721Z,0
2022-11-07T20:09:53.828Z,0
2022-11-07T20:12:19.955Z,0
2022-11-07T20:14:46.023Z,0
2022-11-07T20:17:11.130Z,0
2022-11-07T20:19:37.220Z,0
2022-11-07T20:22:03.420Z,0
2022-11-07T20:24:29.419Z,0
2022-11-07T20:26:55.516Z,0
2022-11-07T20:29:21.630Z,0
2022-11-07T20:31:47.704Z,0
2022-11-07T20:34:13.815Z,0
2022-11-07T20:36:39.908Z,0
2022-11-07T20:39:06.111Z,0
2022-11-07T20:41:32.084Z,0
2022-11-07T20:43:58.245Z,0
2022-11-07T20:46:24.564Z,0
2022-11-07T20:48:49.615Z,0
2022-11-07T20:51:15.727Z,0
2022-11-07T20:53:41.781Z,0
2022-11-07T20:56:07.892Z,0
2022-11-07T20:58:33.958Z,0
2022-11-07T21:01:00.072Z,0
2022-11-07T21:03:26.197Z,0
2022-11-07T21:05:52.269Z,0
2022-11-07T21:08:18.334Z,0
2022-11-07T21:10:44.439Z,0
2022-11-07T21:13:10.457Z,0
2022-11-07T21:15:36.464Z,0
2022-11-07T21:18:02.550Z,0
2022-11-07T21:20:27.658Z,0
2022-11-07T21:22:53.752Z,0
2022-11-07T21:25:19.848Z,0
2022-11-07T21:27:45.936Z,0
2022-11-07T21:30:12.042Z,0
2022-11-07T21:32:38.134Z,0
2022-11-07T21:35:04.257Z,0
2022-11-07T21:37:30.335Z,0
2022-11-07T21:39:56.415Z,0
2022-11-07T21:42:22.542Z,0
2022-11-07T21:44:48.635Z,0
2022-11-07T21:47:14.712Z,0
2022-11-07T21:49:40.856Z,0
2022-11-07T21:52:05.907Z,0
2022-11-07T21:54:32.022Z,0
2022-11-07T21:56:58.148Z,0
2022-11-07T21:59:24.206Z,0
2022-11-07T22:04:16.422Z,0
2022-11-07T22:06:42.491Z,0
2022-11-07T22:09:08.623Z,0
2022-11-07T22:11:34.699Z,0
2022-11-07T22:14:00.767Z,0
2022-11-07T22:16:26.889Z,0
2022-11-07T22:18:52.955Z,0
2022-11-07T22:21:19.118Z,0
2022-11-07T22:23:44.161Z,0
2022-11-07T22:26:10.289Z,0
2022-11-07T22:28:36.364Z,0
2022-11-07T22:31:02.477Z,0
2022-11-07T22:33:28.569Z,0
2022-11-07T22:35:54.660Z,0
2022-11-07T22:38:20.748Z,0
2022-11-07T22:40:46.898Z,0
2022-11-07T22:43:12.956Z,0
2022-11-07T22:45:39.056Z,0
2022-11-07T22:48:05.139Z,0
2022-11-07T22:50:31.233Z,0
2022-11-07T22:52:57.330Z,0
2022-11-07T22:55:22.446Z,0
2022-11-07T22:57:48.538Z,0
2022-11-07T23:00:14.641Z,0
2022-11-07T23:02:40.733Z,0
2022-11-07T23:05:06.824Z,0
2022-11-07T23:07:32.950Z,0
2022-11-07T23:09:59.013Z,0
2022-11-07T23:12:25.114Z,0
2022-11-07T23:14:51.213Z,0
2022-11-07T23:17:17.352Z,0
2022-11-07T23:19:43.403Z,0
2022-11-07T23:22:09.491Z,0
2022-11-07T23:24:35.604Z,0
2022-11-07T23:27:00.713Z,0
2022-11-07T23:29:26.796Z,0
2022-11-07T23:31:52.974Z,0
2022-11-07T23:34:19.003Z,0
2022-11-07T23:36:45.079Z,0
2022-11-07T23:39:11.223Z,0
2022-11-07T23:41:37.282Z,0
2022-11-07T23:44:03.363Z,0
2022-11-07T23:46:29.463Z,0
2022-11-07T23:48:55.572Z,0
2022-11-07T23:51:21.670Z,0
2022-11-07T23:53:47.775Z,0
2022-11-07T23:56:13.872Z,0
2022-11-07T23:58:38.968Z,0
